ADDS METAR Data INFO
IDs: Format: Raw Decoded Include TAF

Data at: 1757 UTC 15 Dec 2017

KLYV 151755Z AUTO 26009KT 10SM CLR 02/M04 A2985 RMK AO2
KLYV 151735Z AUTO 27011KT 10SM CLR 02/M03 A2987 RMK AO2
KLYV 151715Z AUTO 26011KT 10SM CLR 01/M04 A2987 RMK AO2
KLYV 151655Z AUTO 25011KT 10SM CLR 02/M03 A2987 RMK AO2
KLYV 151635Z AUTO 27009KT 10SM CLR 00/M03 A2988 RMK AO2
KLYV 151615Z AUTO 26009KT 10SM SCT120 00/M03 A2988 RMK AO2
KLYV 151555Z AUTO 25011KT 10SM SCT100 00/M03 A2988 RMK AO2
KLYV 151535Z AUTO 26009KT 10SM SCT041 BKN100 00/M03 A2989 RMK AO2
KLYV 151515Z AUTO 25008KT 10SM BKN041 BKN110 00/M03 A2990 RMK AO2
KLYV 151455Z AUTO 25005KT 10SM CLR M01/M03 A2989 RMK AO2
KLYV 151435Z AUTO 25007KT 10SM BKN046 00/M03 A2989 RMK AO2
KLYV 151415Z AUTO 27008KT 10SM BKN048 M01/M03 A2991 RMK AO2
KLYV 151355Z AUTO 26007KT 10SM CLR M01/M03 A2990 RMK AO2
KLYV 151335Z AUTO 26008KT 10SM SCT043 SCT090 SCT120 M01/M03 A2991 RMK AO2
KLYV 151315Z AUTO 26007KT 10SM SCT039 BKN048 OVC090 00/M03 A2991 RMK AO2
KLYV 151255Z AUTO 26009KT 10SM SCT041 BKN048 OVC090 00/M03 A2992 RMK AO2
KLYV 151235Z AUTO 26008KT 10SM SCT039 OVC048 00/M03 A2992 RMK AO2
KLYV 151215Z AUTO 26009KT 10SM OVC048 00/M03 A2993 RMK AO2
KLYV 151155Z AUTO 26009KT 10SM OVC048 00/M03 A2993 RMK AO2
KLYV 151135Z AUTO 26009KT 10SM OVC046 00/M03 A2993 RMK AO2
KLYV 151115Z AUTO 26010KT 10SM OVC048 M01/M03 A2993 RMK AO2
KLYV 151055Z AUTO 26009KT 10SM OVC050 M01/M03 A2995 RMK AO2
KLYV 151035Z AUTO 26010KT 10SM OVC050 M01/M03 A2995 RMK AO2
KLYV 151015Z AUTO 26010KT 10SM OVC050 M01/M03 A2996 RMK AO2
KLYV 150955Z AUTO 26010KT 10SM OVC050 M01/M03 A2997 RMK AO2
KLYV 150935Z AUTO 27009KT 10SM OVC048 M01/M03 A2997 RMK AO2
KLYV 150915Z AUTO 27009KT 10SM OVC048 M01/M03 A2998 RMK AO2
KLYV 150855Z AUTO 27006KT 10SM OVC050 M02/M03 A2999 RMK AO2
KLYV 150835Z AUTO 25006KT 10SM OVC050 M02/M04 A2999 RMK AO2
KLYV 150815Z AUTO 25006KT 10SM OVC050 M02/M04 A2999 RMK AO2
KLYV 150755Z AUTO 25006KT 10SM SCT032 SCT045 OVC050 M02/M04 A3000 RMK AO2
KLYV 150735Z AUTO 25008KT 10SM BKN032 BKN038 OVC045 M02/M05 A3001 RMK AO2
KLYV 150715Z AUTO 24008KT 10SM SCT032 BKN045 OVC050 M02/M05 A3002 RMK AO2
KLYV 150655Z AUTO 26009KT 10SM OVC050 M02/M05 A3002 RMK AO2
KLYV 150635Z AUTO 25007KT 10SM OVC050 M02/M05 A3003 RMK AO2
KLYV 150615Z AUTO 27007KT 10SM OVC050 M02/M05 A3005 RMK AO2
KLYV 150555Z AUTO 25006KT 10SM SCT044 OVC050 M03/M05 A3005 RMK AO2
KLYV 150535Z AUTO 26007KT 10SM SCT039 OVC048 M03/M06 A3006 RMK AO2
KLYV 150515Z AUTO 27006KT 10SM OVC040 M03/M06 A3007 RMK AO2
KLYV 150455Z AUTO 27007KT 10SM OVC042 M03/M06 A3007 RMK AO2
KLYV 150435Z AUTO 27005KT 10SM OVC042 M03/M06 A3008 RMK AO2
KLYV 150415Z AUTO 28007KT 10SM OVC042 M03/M06 A3008 RMK AO2
KLYV 150355Z AUTO 29004KT 10SM OVC040 M03/M06 A3009 RMK AO2
KLYV 150335Z AUTO 31007KT 10SM OVC044 M03/M06 A3009 RMK AO2
KLYV 150315Z AUTO 33007KT 10SM SCT015 OVC046 M02/M06 A3009 RMK AO2
KLYV 150255Z AUTO 34012G16KT 10SM BKN015 BKN024 OVC029 M02/M05 A3009 RMK AO2
KLYV 150235Z AUTO 33006KT 10SM SCT022 OVC029 M02/M05 A3009 RMK AO2
KLYV 150215Z AUTO 33005KT 10SM SCT023 OVC031 M02/M05 A3010 RMK AO2
KLYV 150155Z AUTO 34006KT 10SM BKN029 M02/M05 A3009 RMK AO2
KLYV 150135Z AUTO 34009KT 10SM SCT027 BKN041 M02/M05 A3009 RMK AO2
KLYV 150115Z AUTO 34008KT 10SM OVC039 M02/M04 A3009 RMK AO2
KLYV 150055Z AUTO 01003KT 10SM OVC039 M02/M03 A3009 RMK AO2
KLYV 150035Z AUTO 03004KT 10SM OVC037 M02/M04 A3008 RMK AO2
KLYV 150015Z AUTO 02008KT 10SM SCT013 SCT022 OVC035 M01/M03 A3008 RMK AO2
KLYV 142355Z AUTO 34018G21KT 10SM SCT007 BKN014 OVC037 00/M02 A3006 RMK AO2
KLYV 142335Z AUTO 31011G18KT 4SM UP SCT006 BKN011 OVC023 00/M01 A3006 RMK AO2
KLYV 142315Z AUTO 31009KT 5SM BR BKN014 OVC020 00/M02 A3005 RMK AO2
KLYV 142255Z AUTO 30007KT 10SM OVC014 00/M02 A3005 RMK AO2
KLYV 142235Z AUTO 30005KT 10SM OVC012 00/M02 A3005 RMK AO2
KLYV 142215Z AUTO 29007KT 10SM OVC016 00/M02 A3005 RMK AO2
KLYV 142155Z AUTO 30004KT 10SM OVC016 00/M03 A3005 RMK AO2
KLYV 142135Z AUTO 32004KT 10SM BKN020 OVC026 00/M03 A3004 RMK AO2
KLYV 142115Z AUTO 32004KT 10SM BKN024 OVC029 00/M03 A3004 RMK AO2
KLYV 142055Z AUTO 33005KT 10SM OVC027 00/M03 A3003 RMK AO2
KLYV 142035Z AUTO 32006KT 10SM BKN028 OVC034 00/M03 A3003 RMK AO2
KLYV 142015Z AUTO 33005KT 10SM SCT024 OVC031 00/M03 A3003 RMK AO2
KLYV 141955Z AUTO 33006KT 10SM OVC024 00/M04 A3003 RMK AO2
KLYV 141935Z AUTO 34005KT 10SM -SN BKN022 OVC027 00/M03 A3003 RMK AO2
KLYV 141915Z AUTO 32006KT 10SM OVC020 00/M03 A3003 RMK AO2
KLYV 141855Z AUTO 33006KT 10SM SCT020 BKN026 OVC037 00/M03 A3004 RMK AO2
KLYV 141835Z AUTO 30004KT 10SM OVC037 00/M03 A3003 RMK AO2
KLYV 141815Z AUTO 30003KT 10SM OVC035 00/M03 A3004 RMK AO2
KLYV 141755Z AUTO 27006KT 10SM SCT012 SCT017 OVC035 00/M03 A3004 RMK AO2
KLYV 141735Z AUTO 29006KT 10SM SCT015 OVC035 00/M03 A3004 RMK AO2
KLYV 141715Z AUTO 28004KT 10SM SCT007 OVC035 00/M03 A3005 RMK AO2
KLYV 141655Z AUTO 25003KT 10SM SCT007 SCT017 OVC033 M01/M03 A3004 RMK AO2
KLYV 141635Z AUTO 24004KT 10SM OVC031 M02/M03 A3005 RMK AO2
KLYV 141615Z AUTO 24005KT 10SM SCT004 OVC031 M02/M03 A3004 RMK AO2
KLYV 141555Z AUTO 21005KT 10SM BKN004 OVC033 M02/M03 A3003 RMK AO2
KLYV 141535Z AUTO 21006KT 10SM SCT004 OVC033 M03/M04 A3003 RMK AO2
KLYV 141515Z AUTO 18006KT 7SM OVC028 M03/M04 A3002 RMK AO2
KLYV 141455Z AUTO 19004KT 10SM OVC028 M03/M05 A3002 RMK AO2
KLYV 141435Z AUTO 18005KT 10SM OVC028 M03/M05 A3002 RMK AO2
KLYV 141415Z AUTO 19005KT 10SM BKN010 OVC026 M03/M05 A3002 RMK AO2
KLYV 141355Z AUTO 19004KT 10SM OVC010 M03/M05 A3002 RMK AO2
KLYV 141335Z AUTO 18003KT 10SM OVC010 M03/M05 A3001 RMK AO2
KLYV 141315Z AUTO 18003KT 10SM SCT004 OVC010 M03/M05 A3001 RMK AO2
KLYV 141256Z AUTO 00000KT 5SM BR OVC010 M03/M05 A3000 RMK AO2
KLYV 141235Z AUTO 18003KT 7SM OVC012 M03/M05 A3000 RMK AO2
KLYV 141215Z AUTO 00000KT 10SM OVC016 M03/M05 A3000 RMK AO2
KLYV 141156Z AUTO 00000KT 10SM SCT010 OVC018 M03/M05 A3000 RMK AO2
KLYV 141135Z AUTO 00000KT 10SM SCT010 OVC018 M03/M05 A2999 RMK AO2
KLYV 141115Z AUTO 00000KT 4SM UP SCT012 BKN020 OVC034 M03/M05 A2999 RMK AO2
KLYV 141056Z AUTO 00000KT 7SM BKN018 OVC023 M03/M05 A2999 RMK AO2
KLYV 141035Z AUTO 00000KT 10SM OVC016 M03/M06 A2999 RMK AO2
KLYV 141015Z AUTO 00000KT 10SM BKN010 OVC016 M03/M05 A2999 RMK AO2
KLYV 140955Z AUTO 00000KT 10SM OVC010 M03/M06 A2999 RMK AO2
KLYV 140935Z AUTO 00000KT 7SM OVC012 M03/M06 A2999 RMK AO2
KLYV 140915Z AUTO 00000KT 10SM OVC012 M03/M06 A2999 RMK AO2
KLYV 140855Z AUTO 03003KT 10SM OVC012 M03/M06 A2999 RMK AO2
KLYV 140835Z AUTO 03003KT 10SM OVC012 M03/M06 A2999 RMK AO2
KLYV 140815Z AUTO 03004KT 10SM OVC012 M03/M06 A2999 RMK AO2
KLYV 140755Z AUTO 04005KT 10SM OVC014 M03/M06 A2999 RMK AO2
KLYV 140735Z AUTO 02004KT 10SM OVC014 M03/M06 A2999 RMK AO2
KLYV 140715Z AUTO 36007KT 10SM OVC014 M03/M06 A2999 RMK AO2
KLYV 140655Z AUTO 01006KT 10SM OVC016 M02/M06 A2999 RMK AO2
KLYV 140635Z AUTO 36007KT 10SM OVC016 M02/M06 A2999 RMK AO2
KLYV 140615Z AUTO 02004KT 10SM OVC016 M02/M05 A2999 RMK AO2